sensor_id;sensor_type;location;lat;lon;timestamp;P1;durP1;ratioP1;P2;durP2;ratioP2
71462;SDS011;59266;52.608;13.260;2022-07-01T00:00:20;15.50;;;9.73;;
71462;SDS011;59266;52.608;13.260;2022-07-01T00:02:47;15.13;;;9.68;;
71462;SDS011;59266;52.608;13.260;2022-07-01T00:05:13;14.32;;;9.68;;
71462;SDS011;59266;52.608;13.260;2022-07-01T00:07:40;14.43;;;9.45;;
71462;SDS011;59266;52.608;13.260;2022-07-01T00:10:07;13.75;;;9.10;;
71462;SDS011;59266;52.608;13.260;2022-07-01T00:12:34;13.90;;;10.05;;
71462;SDS011;59266;52.608;13.260;2022-07-01T00:15:02;13.65;;;9.73;;
71462;SDS011;59266;52.608;13.260;2022-07-01T00:17:29;14.85;;;9.95;;
71462;SDS011;59266;52.608;13.260;2022-07-01T00:19:56;13.75;;;9.55;;
71462;SDS011;59266;52.608;13.260;2022-07-01T00:22:22;13.60;;;9.45;;
71462;SDS011;59266;52.608;13.260;2022-07-01T00:24:49;14.18;;;9.57;;
71462;SDS011;59266;52.608;13.260;2022-07-01T00:27:15;14.55;;;9.57;;
71462;SDS011;59266;52.608;13.260;2022-07-01T00:29:42;14.00;;;9.90;;
71462;SDS011;59266;52.608;13.260;2022-07-01T00:32:09;14.38;;;10.48;;
71462;SDS011;59266;52.608;13.260;2022-07-01T00:34:35;14.95;;;9.75;;
71462;SDS011;59266;52.608;13.260;2022-07-01T00:37:02;14.68;;;9.77;;
71462;SDS011;59266;52.608;13.260;2022-07-01T00:39:29;16.75;;;9.93;;
71462;SDS011;59266;52.608;13.260;2022-07-01T00:41:58;16.23;;;10.63;;
71462;SDS011;59266;52.608;13.260;2022-07-01T00:44:26;18.17;;;10.80;;
71462;SDS011;59266;52.608;13.260;2022-07-01T00:46:53;17.85;;;10.05;;
71462;SDS011;59266;52.608;13.260;2022-07-01T00:49:20;16.23;;;9.98;;
71462;SDS011;59266;52.608;13.260;2022-07-01T00:51:46;15.35;;;9.57;;
71462;SDS011;59266;52.608;13.260;2022-07-01T00:54:13;14.82;;;10.57;;
71462;SDS011;59266;52.608;13.260;2022-07-01T00:56:41;16.08;;;9.55;;
71462;SDS011;59266;52.608;13.260;2022-07-01T00:59:07;18.48;;;11.38;;
71462;SDS011;59266;52.608;13.260;2022-07-01T01:01:34;17.20;;;10.98;;
71462;SDS011;59266;52.608;13.260;2022-07-01T01:04:01;17.83;;;10.55;;
71462;SDS011;59266;52.608;13.260;2022-07-01T01:06:28;14.60;;;10.45;;
71462;SDS011;59266;52.608;13.260;2022-07-01T01:08:55;18.13;;;10.57;;
71462;SDS011;59266;52.608;13.260;2022-07-01T01:11:23;14.88;;;9.85;;
71462;SDS011;59266;52.608;13.260;2022-07-01T01:13:49;16.98;;;10.55;;
71462;SDS011;59266;52.608;13.260;2022-07-01T01:16:17;16.83;;;11.20;;
71462;SDS011;59266;52.608;13.260;2022-07-01T01:18:44;17.00;;;11.05;;
71462;SDS011;59266;52.608;13.260;2022-07-01T01:21:14;15.20;;;10.38;;
71462;SDS011;59266;52.608;13.260;2022-07-01T01:23:41;16.63;;;10.48;;
71462;SDS011;59266;52.608;13.260;2022-07-01T01:26:21;14.98;;;10.32;;
71462;SDS011;59266;52.608;13.260;2022-07-01T01:28:48;15.55;;;9.93;;
71462;SDS011;59266;52.608;13.260;2022-07-01T01:31:15;19.05;;;10.57;;
71462;SDS011;59266;52.608;13.260;2022-07-01T01:33:42;15.93;;;10.70;;
71462;SDS011;59266;52.608;13.260;2022-07-01T01:36:10;15.52;;;10.90;;
71462;SDS011;59266;52.608;13.260;2022-07-01T01:38:37;16.70;;;11.02;;
71462;SDS011;59266;52.608;13.260;2022-07-01T01:41:04;15.32;;;11.32;;
71462;SDS011;59266;52.608;13.260;2022-07-01T01:43:31;15.18;;;11.00;;
71462;SDS011;59266;52.608;13.260;2022-07-01T01:46:01;15.90;;;11.27;;
71462;SDS011;59266;52.608;13.260;2022-07-01T01:48:28;15.80;;;10.63;;
71462;SDS011;59266;52.608;13.260;2022-07-01T01:50:55;17.45;;;12.15;;
71462;SDS011;59266;52.608;13.260;2022-07-01T01:53:22;19.63;;;12.18;;
71462;SDS011;59266;52.608;13.260;2022-07-01T01:55:50;18.45;;;11.85;;
71462;SDS011;59266;52.608;13.260;2022-07-01T01:58:16;17.40;;;12.55;;
71462;SDS011;59266;52.608;13.260;2022-07-01T02:00:43;17.48;;;12.02;;
71462;SDS011;59266;52.608;13.260;2022-07-01T02:03:10;17.95;;;12.45;;
71462;SDS011;59266;52.608;13.260;2022-07-01T02:05:37;18.67;;;12.18;;
71462;SDS011;59266;52.608;13.260;2022-07-01T02:08:06;16.42;;;11.50;;
71462;SDS011;59266;52.608;13.260;2022-07-01T02:10:33;17.63;;;11.80;;
71462;SDS011;59266;52.608;13.260;2022-07-01T02:13:00;16.33;;;11.60;;
71462;SDS011;59266;52.608;13.260;2022-07-01T02:15:26;20.58;;;12.73;;
71462;SDS011;59266;52.608;13.260;2022-07-01T02:17:53;21.80;;;13.10;;
71462;SDS011;59266;52.608;13.260;2022-07-01T02:20:22;18.92;;;12.20;;
71462;SDS011;59266;52.608;13.260;2022-07-01T02:22:49;19.60;;;12.90;;
71462;SDS011;59266;52.608;13.260;2022-07-01T02:25:15;21.00;;;14.00;;
71462;SDS011;59266;52.608;13.260;2022-07-01T02:27:42;21.75;;;12.25;;
71462;SDS011;59266;52.608;13.260;2022-07-01T02:30:09;20.77;;;13.50;;
71462;SDS011;59266;52.608;13.260;2022-07-01T02:32:35;20.58;;;13.65;;
71462;SDS011;59266;52.608;13.260;2022-07-01T02:35:02;20.67;;;14.27;;
71462;SDS011;59266;52.608;13.260;2022-07-01T02:37:29;24.10;;;15.23;;
71462;SDS011;59266;52.608;13.260;2022-07-01T02:39:55;24.05;;;14.88;;
71462;SDS011;59266;52.608;13.260;2022-07-01T02:42:22;22.23;;;15.05;;
71462;SDS011;59266;52.608;13.260;2022-07-01T02:44:58;23.13;;;14.43;;
71462;SDS011;59266;52.608;13.260;2022-07-01T02:47:24;23.42;;;13.65;;
71462;SDS011;59266;52.608;13.260;2022-07-01T02:49:56;21.10;;;14.02;;
71462;SDS011;59266;52.608;13.260;2022-07-01T02:52:23;21.05;;;14.52;;
71462;SDS011;59266;52.608;13.260;2022-07-01T02:54:49;19.60;;;13.18;;
71462;SDS011;59266;52.608;13.260;2022-07-01T02:57:16;20.50;;;14.18;;
71462;SDS011;59266;52.608;13.260;2022-07-01T02:59:42;20.65;;;14.55;;
71462;SDS011;59266;52.608;13.260;2022-07-01T03:02:09;20.75;;;13.85;;
71462;SDS011;59266;52.608;13.260;2022-07-01T03:04:36;20.92;;;13.27;;
71462;SDS011;59266;52.608;13.260;2022-07-01T03:07:03;19.05;;;13.85;;
71462;SDS011;59266;52.608;13.260;2022-07-01T03:09:29;21.10;;;14.15;;
71462;SDS011;59266;52.608;13.260;2022-07-01T03:11:56;24.00;;;15.00;;
71462;SDS011;59266;52.608;13.260;2022-07-01T03:14:22;21.83;;;14.68;;
71462;SDS011;59266;52.608;13.260;2022-07-01T03:16:49;26.13;;;16.40;;
71462;SDS011;59266;52.608;13.260;2022-07-01T03:19:15;22.20;;;14.65;;
71462;SDS011;59266;52.608;13.260;2022-07-01T03:21:43;20.52;;;14.52;;
71462;SDS011;59266;52.608;13.260;2022-07-01T03:24:09;22.42;;;14.02;;
71462;SDS011;59266;52.608;13.260;2022-07-01T03:26:36;23.75;;;15.93;;
71462;SDS011;59266;52.608;13.260;2022-07-01T03:29:04;24.45;;;15.15;;
71462;SDS011;59266;52.608;13.260;2022-07-01T03:31:30;24.25;;;16.05;;
71462;SDS011;59266;52.608;13.260;2022-07-01T03:33:58;26.08;;;17.30;;
71462;SDS011;59266;52.608;13.260;2022-07-01T03:36:25;26.42;;;17.10;;
71462;SDS011;59266;52.608;13.260;2022-07-01T03:38:52;24.02;;;16.50;;
71462;SDS011;59266;52.608;13.260;2022-07-01T03:41:18;23.65;;;15.25;;
71462;SDS011;59266;52.608;13.260;2022-07-01T03:43:45;30.25;;;18.15;;
71462;SDS011;59266;52.608;13.260;2022-07-01T03:46:12;25.15;;;16.40;;
71462;SDS011;59266;52.608;13.260;2022-07-01T03:48:38;22.20;;;15.60;;
71462;SDS011;59266;52.608;13.260;2022-07-01T03:51:07;27.45;;;17.20;;
71462;SDS011;59266;52.608;13.260;2022-07-01T03:53:35;23.55;;;15.40;;
71462;SDS011;59266;52.608;13.260;2022-07-01T03:56:21;23.40;;;15.82;;
71462;SDS011;59266;52.608;13.260;2022-07-01T03:58:47;22.30;;;15.70;;
71462;SDS011;59266;52.608;13.260;2022-07-01T04:01:15;26.13;;;16.40;;
71462;SDS011;59266;52.608;13.260;2022-07-01T04:03:43;27.58;;;16.70;;
71462;SDS011;59266;52.608;13.260;2022-07-01T04:06:10;24.00;;;16.23;;
71462;SDS011;59266;52.608;13.260;2022-07-01T04:08:37;24.02;;;17.65;;
71462;SDS011;59266;52.608;13.260;2022-07-01T04:11:04;27.00;;;16.88;;
71462;SDS011;59266;52.608;13.260;2022-07-01T04:13:34;27.77;;;16.98;;
71462;SDS011;59266;52.608;13.260;2022-07-01T04:16:03;26.63;;;16.48;;
71462;SDS011;59266;52.608;13.260;2022-07-01T04:18:30;22.02;;;15.07;;
71462;SDS011;59266;52.608;13.260;2022-07-01T04:20:57;27.38;;;17.52;;
71462;SDS011;59266;52.608;13.260;2022-07-01T04:23:43;26.20;;;16.67;;
71462;SDS011;59266;52.608;13.260;2022-07-01T04:26:09;24.17;;;16.55;;
71462;SDS011;59266;52.608;13.260;2022-07-01T04:28:56;25.50;;;17.10;;
71462;SDS011;59266;52.608;13.260;2022-07-01T04:31:22;30.13;;;17.38;;
71462;SDS011;59266;52.608;13.260;2022-07-01T04:33:49;26.90;;;17.27;;
71462;SDS011;59266;52.608;13.260;2022-07-01T04:36:16;27.60;;;18.10;;
71462;SDS011;59266;52.608;13.260;2022-07-01T04:38:43;23.75;;;16.80;;
71462;SDS011;59266;52.608;13.260;2022-07-01T04:41:10;25.38;;;17.20;;
71462;SDS011;59266;52.608;13.260;2022-07-01T04:43:55;25.13;;;16.77;;
71462;SDS011;59266;52.608;13.260;2022-07-01T04:46:21;24.55;;;17.38;;
71462;SDS011;59266;52.608;13.260;2022-07-01T04:48:48;25.05;;;17.35;;
71462;SDS011;59266;52.608;13.260;2022-07-01T04:51:14;25.25;;;16.20;;
71462;SDS011;59266;52.608;13.260;2022-07-01T04:53:41;25.50;;;17.05;;
71462;SDS011;59266;52.608;13.260;2022-07-01T04:56:08;24.58;;;16.80;;
71462;SDS011;59266;52.608;13.260;2022-07-01T04:58:34;24.08;;;16.95;;
71462;SDS011;59266;52.608;13.260;2022-07-01T05:01:00;27.13;;;15.70;;
71462;SDS011;59266;52.608;13.260;2022-07-01T05:03:27;23.92;;;16.65;;
71462;SDS011;59266;52.608;13.260;2022-07-01T05:05:54;23.75;;;17.45;;
71462;SDS011;59266;52.608;13.260;2022-07-01T05:08:20;26.08;;;18.02;;
71462;SDS011;59266;52.608;13.260;2022-07-01T05:10:47;25.10;;;16.60;;
71462;SDS011;59266;52.608;13.260;2022-07-01T05:13:13;23.77;;;16.42;;
71462;SDS011;59266;52.608;13.260;2022-07-01T05:15:40;25.05;;;15.68;;
71462;SDS011;59266;52.608;13.260;2022-07-01T05:18:06;25.85;;;17.05;;
71462;SDS011;59266;52.608;13.260;2022-07-01T05:20:51;23.80;;;15.10;;
71462;SDS011;59266;52.608;13.260;2022-07-01T05:23:36;23.52;;;14.65;;
71462;SDS011;59266;52.608;13.260;2022-07-01T05:26:03;22.20;;;15.43;;
71462;SDS011;59266;52.608;13.260;2022-07-01T05:28:30;20.45;;;15.05;;
71462;SDS011;59266;52.608;13.260;2022-07-01T05:30:56;22.40;;;15.48;;
71462;SDS011;59266;52.608;13.260;2022-07-01T05:33:23;24.42;;;15.75;;
71462;SDS011;59266;52.608;13.260;2022-07-01T05:35:53;20.23;;;15.15;;
71462;SDS011;59266;52.608;13.260;2022-07-01T05:38:20;20.90;;;14.40;;
71462;SDS011;59266;52.608;13.260;2022-07-01T05:40:47;17.55;;;12.18;;
71462;SDS011;59266;52.608;13.260;2022-07-01T05:43:14;20.20;;;14.00;;
71462;SDS011;59266;52.608;13.260;2022-07-01T05:45:40;21.30;;;15.48;;
71462;SDS011;59266;52.608;13.260;2022-07-01T05:48:07;19.70;;;15.02;;
71462;SDS011;59266;52.608;13.260;2022-07-01T05:50:33;22.88;;;16.88;;
71462;SDS011;59266;52.608;13.260;2022-07-01T05:53:00;22.50;;;15.82;;
71462;SDS011;59266;52.608;13.260;2022-07-01T05:55:27;23.10;;;15.38;;
71462;SDS011;59266;52.608;13.260;2022-07-01T05:57:53;22.77;;;15.60;;
71462;SDS011;59266;52.608;13.260;2022-07-01T06:00:20;22.70;;;15.10;;
71462;SDS011;59266;52.608;13.260;2022-07-01T06:02:47;22.05;;;15.77;;
71462;SDS011;59266;52.608;13.260;2022-07-01T06:05:13;20.80;;;15.65;;
71462;SDS011;59266;52.608;13.260;2022-07-01T06:07:40;22.15;;;15.00;;
71462;SDS011;59266;52.608;13.260;2022-07-01T06:10:08;20.48;;;16.20;;
71462;SDS011;59266;52.608;13.260;2022-07-01T06:12:39;21.08;;;15.57;;
71462;SDS011;59266;52.608;13.260;2022-07-01T06:15:10;20.90;;;15.27;;
71462;SDS011;59266;52.608;13.260;2022-07-01T06:17:38;22.30;;;17.05;;
71462;SDS011;59266;52.608;13.260;2022-07-01T06:20:07;24.58;;;15.80;;
71462;SDS011;59266;52.608;13.260;2022-07-01T06:22:34;22.63;;;16.83;;
71462;SDS011;59266;52.608;13.260;2022-07-01T06:25:01;22.50;;;17.40;;
71462;SDS011;59266;52.608;13.260;2022-07-01T06:27:28;24.38;;;17.55;;
71462;SDS011;59266;52.608;13.260;2022-07-01T06:29:55;24.92;;;16.67;;
71462;SDS011;59266;52.608;13.260;2022-07-01T06:32:22;24.83;;;18.40;;
71462;SDS011;59266;52.608;13.260;2022-07-01T06:34:48;22.30;;;16.23;;
71462;SDS011;59266;52.608;13.260;2022-07-01T06:37:15;21.13;;;16.63;;
71462;SDS011;59266;52.608;13.260;2022-07-01T06:39:41;22.55;;;16.98;;
71462;SDS011;59266;52.608;13.260;2022-07-01T06:42:08;23.00;;;17.35;;
71462;SDS011;59266;52.608;13.260;2022-07-01T06:44:34;24.63;;;17.30;;
71462;SDS011;59266;52.608;13.260;2022-07-01T06:47:02;23.33;;;15.23;;
71462;SDS011;59266;52.608;13.260;2022-07-01T06:49:28;21.55;;;16.05;;
71462;SDS011;59266;52.608;13.260;2022-07-01T06:51:55;21.67;;;16.38;;
71462;SDS011;59266;52.608;13.260;2022-07-01T06:54:21;20.98;;;16.73;;
71462;SDS011;59266;52.608;13.260;2022-07-01T06:56:48;23.40;;;16.23;;
71462;SDS011;59266;52.608;13.260;2022-07-01T06:59:14;24.27;;;15.68;;
71462;SDS011;59266;52.608;13.260;2022-07-01T07:01:42;18.88;;;14.40;;
71462;SDS011;59266;52.608;13.260;2022-07-01T07:04:09;20.90;;;14.40;;
71462;SDS011;59266;52.608;13.260;2022-07-01T07:06:36;18.58;;;14.05;;
71462;SDS011;59266;52.608;13.260;2022-07-01T07:09:03;20.17;;;14.20;;
71462;SDS011;59266;52.608;13.260;2022-07-01T07:11:29;20.05;;;13.15;;
71462;SDS011;59266;52.608;13.260;2022-07-01T07:13:56;17.85;;;12.50;;
71462;SDS011;59266;52.608;13.260;2022-07-01T07:16:22;15.25;;;11.57;;
71462;SDS011;59266;52.608;13.260;2022-07-01T07:18:49;16.83;;;12.05;;
71462;SDS011;59266;52.608;13.260;2022-07-01T07:21:16;16.58;;;12.10;;
71462;SDS011;59266;52.608;13.260;2022-07-01T07:23:43;15.93;;;11.40;;
71462;SDS011;59266;52.608;13.260;2022-07-01T07:26:10;15.05;;;10.93;;
71462;SDS011;59266;52.608;13.260;2022-07-01T07:28:36;15.70;;;11.15;;
71462;SDS011;59266;52.608;13.260;2022-07-01T07:31:03;12.57;;;9.93;;
71462;SDS011;59266;52.608;13.260;2022-07-01T07:33:30;15.40;;;9.80;;
71462;SDS011;59266;52.608;13.260;2022-07-01T07:35:57;15.23;;;10.43;;
71462;SDS011;59266;52.608;13.260;2022-07-01T07:38:23;13.23;;;9.90;;
71462;SDS011;59266;52.608;13.260;2022-07-01T07:40:50;11.80;;;9.50;;
71462;SDS011;59266;52.608;13.260;2022-07-01T07:43:16;11.13;;;8.27;;
71462;SDS011;59266;52.608;13.260;2022-07-01T07:45:43;11.45;;;8.93;;
71462;SDS011;59266;52.608;13.260;2022-07-01T07:48:10;12.93;;;9.50;;
71462;SDS011;59266;52.608;13.260;2022-07-01T07:50:36;12.52;;;8.88;;
71462;SDS011;59266;52.608;13.260;2022-07-01T07:53:03;11.82;;;9.45;;
71462;SDS011;59266;52.608;13.260;2022-07-01T07:55:30;12.32;;;9.38;;
71462;SDS011;59266;52.608;13.260;2022-07-01T07:57:56;13.23;;;8.40;;
71462;SDS011;59266;52.608;13.260;2022-07-01T08:00:23;13.27;;;9.15;;
71462;SDS011;59266;52.608;13.260;2022-07-01T08:02:49;12.73;;;9.20;;
71462;SDS011;59266;52.608;13.260;2022-07-01T08:05:16;13.38;;;9.68;;
71462;SDS011;59266;52.608;13.260;2022-07-01T08:07:42;12.93;;;8.55;;
71462;SDS011;59266;52.608;13.260;2022-07-01T08:10:11;13.45;;;8.93;;
71462;SDS011;59266;52.608;13.260;2022-07-01T08:12:38;13.88;;;9.45;;
71462;SDS011;59266;52.608;13.260;2022-07-01T08:15:05;15.85;;;10.52;;
71462;SDS011;59266;52.608;13.260;2022-07-01T08:17:32;13.15;;;10.55;;
71462;SDS011;59266;52.608;13.260;2022-07-01T08:19:59;12.55;;;9.48;;
71462;SDS011;59266;52.608;13.260;2022-07-01T08:22:25;12.90;;;10.32;;
71462;SDS011;59266;52.608;13.260;2022-07-01T08:24:52;13.05;;;10.50;;
71462;SDS011;59266;52.608;13.260;2022-07-01T08:27:20;14.25;;;10.20;;
71462;SDS011;59266;52.608;13.260;2022-07-01T08:29:47;14.13;;;11.40;;
71462;SDS011;59266;52.608;13.260;2022-07-01T08:32:13;14.52;;;10.95;;
71462;SDS011;59266;52.608;13.260;2022-07-01T08:34:40;12.82;;;10.57;;
71462;SDS011;59266;52.608;13.260;2022-07-01T08:37:07;14.10;;;10.50;;
71462;SDS011;59266;52.608;13.260;2022-07-01T08:39:33;16.42;;;10.32;;
71462;SDS011;59266;52.608;13.260;2022-07-01T08:42:00;12.65;;;10.05;;
71462;SDS011;59266;52.608;13.260;2022-07-01T08:44:27;15.05;;;10.68;;
71462;SDS011;59266;52.608;13.260;2022-07-01T08:46:53;15.27;;;9.98;;
71462;SDS011;59266;52.608;13.260;2022-07-01T08:49:20;11.80;;;9.27;;
71462;SDS011;59266;52.608;13.260;2022-07-01T08:51:47;14.52;;;9.40;;
71462;SDS011;59266;52.608;13.260;2022-07-01T08:54:14;13.05;;;10.10;;
71462;SDS011;59266;52.608;13.260;2022-07-01T08:56:41;14.05;;;10.35;;
71462;SDS011;59266;52.608;13.260;2022-07-01T08:59:08;13.43;;;9.35;;
71462;SDS011;59266;52.608;13.260;2022-07-01T09:01:37;14.63;;;9.40;;
71462;SDS011;59266;52.608;13.260;2022-07-01T09:04:14;12.48;;;10.30;;
71462;SDS011;59266;52.608;13.260;2022-07-01T09:06:46;11.15;;;8.98;;
71462;SDS011;59266;52.608;13.260;2022-07-01T09:11:45;11.88;;;9.20;;
71462;SDS011;59266;52.608;13.260;2022-07-01T09:14:22;11.00;;;8.20;;
71462;SDS011;59266;52.608;13.260;2022-07-01T09:16:54;12.43;;;9.77;;
71462;SDS011;59266;52.608;13.260;2022-07-01T09:19:25;11.32;;;8.30;;
71462;SDS011;59266;52.608;13.260;2022-07-01T09:21:57;12.75;;;6.35;;
71462;SDS011;59266;52.608;13.260;2022-07-01T09:24:32;14.20;;;6.35;;
71462;SDS011;59266;52.608;13.260;2022-07-01T09:27:02;12.57;;;6.93;;
71462;SDS011;59266;52.608;13.260;2022-07-01T09:29:39;12.85;;;6.03;;
71462;SDS011;59266;52.608;13.260;2022-07-01T09:32:10;12.48;;;5.82;;
71462;SDS011;59266;52.608;13.260;2022-07-01T09:37:12;7.57;;;3.47;;
71462;SDS011;59266;52.608;13.260;2022-07-01T09:39:41;9.52;;;4.10;;
71462;SDS011;59266;52.608;13.260;2022-07-01T09:42:12;10.18;;;3.30;;
71462;SDS011;59266;52.608;13.260;2022-07-01T09:47:33;8.90;;;2.80;;
71462;SDS011;59266;52.608;13.260;2022-07-01T09:50:03;5.40;;;2.47;;
71462;SDS011;59266;52.608;13.260;2022-07-01T09:52:30;11.77;;;2.40;;
71462;SDS011;59266;52.608;13.260;2022-07-01T09:55:03;5.28;;;1.80;;
71462;SDS011;59266;52.608;13.260;2022-07-01T09:57:30;6.22;;;2.10;;
71462;SDS011;59266;52.608;13.260;2022-07-01T09:59:57;5.10;;;1.75;;
71462;SDS011;59266;52.608;13.260;2022-07-01T10:02:25;8.88;;;2.42;;
71462;SDS011;59266;52.608;13.260;2022-07-01T10:05:00;6.18;;;2.30;;
71462;SDS011;59266;52.608;13.260;2022-07-01T10:07:56;5.97;;;2.35;;
71462;SDS011;59266;52.608;13.260;2022-07-01T10:10:35;5.82;;;2.30;;
71462;SDS011;59266;52.608;13.260;2022-07-01T10:13:08;8.85;;;2.58;;
71462;SDS011;59266;52.608;13.260;2022-07-01T10:15:39;7.20;;;2.55;;
71462;SDS011;59266;52.608;13.260;2022-07-01T10:18:17;5.78;;;2.50;;
71462;SDS011;59266;52.608;13.260;2022-07-01T10:20:46;6.07;;;2.80;;
71462;SDS011;59266;52.608;13.260;2022-07-01T10:23:14;5.90;;;2.80;;
71462;SDS011;59266;52.608;13.260;2022-07-01T10:28:11;6.07;;;2.50;;
71462;SDS011;59266;52.608;13.260;2022-07-01T10:35:55;6.20;;;2.03;;
71462;SDS011;59266;52.608;13.260;2022-07-01T10:38:22;5.07;;;2.38;;
71462;SDS011;59266;52.608;13.260;2022-07-01T10:40:48;4.72;;;1.80;;
71462;SDS011;59266;52.608;13.260;2022-07-01T10:43:15;4.40;;;1.90;;
71462;SDS011;59266;52.608;13.260;2022-07-01T10:45:59;4.50;;;2.00;;
71462;SDS011;59266;52.608;13.260;2022-07-01T10:48:28;6.15;;;2.22;;
71462;SDS011;59266;52.608;13.260;2022-07-01T10:50:58;4.70;;;1.67;;
71462;SDS011;59266;52.608;13.260;2022-07-01T10:53:24;5.25;;;1.77;;
71462;SDS011;59266;52.608;13.260;2022-07-01T10:56:14;3.90;;;1.50;;
71462;SDS011;59266;52.608;13.260;2022-07-01T10:58:41;5.32;;;1.70;;
71462;SDS011;59266;52.608;13.260;2022-07-01T11:01:09;11.15;;;1.70;;
71462;SDS011;59266;52.608;13.260;2022-07-01T11:03:37;4.97;;;1.83;;
71462;SDS011;59266;52.608;13.260;2022-07-01T11:06:07;4.90;;;1.67;;
71462;SDS011;59266;52.608;13.260;2022-07-01T11:08:34;5.75;;;2.00;;
71462;SDS011;59266;52.608;13.260;2022-07-01T11:11:01;4.28;;;1.63;;
71462;SDS011;59266;52.608;13.260;2022-07-01T11:13:30;3.65;;;1.50;;
71462;SDS011;59266;52.608;13.260;2022-07-01T11:15:57;5.53;;;1.60;;
71462;SDS011;59266;52.608;13.260;2022-07-01T11:18:24;7.00;;;1.90;;
71462;SDS011;59266;52.608;13.260;2022-07-01T11:20:50;7.10;;;1.60;;
71462;SDS011;59266;52.608;13.260;2022-07-01T11:23:20;6.43;;;1.63;;
71462;SDS011;59266;52.608;13.260;2022-07-01T11:25:47;4.65;;;1.60;;
71462;SDS011;59266;52.608;13.260;2022-07-01T11:28:13;4.20;;;1.50;;
71462;SDS011;59266;52.608;13.260;2022-07-01T11:30:40;6.47;;;1.60;;
71462;SDS011;59266;52.608;13.260;2022-07-01T11:33:07;6.93;;;1.60;;
71462;SDS011;59266;52.608;13.260;2022-07-01T11:35:35;6.53;;;1.70;;
71462;SDS011;59266;52.608;13.260;2022-07-01T11:38:22;5.88;;;1.42;;
71462;SDS011;59266;52.608;13.260;2022-07-01T11:41:09;7.20;;;1.58;;
71462;SDS011;59266;52.608;13.260;2022-07-01T11:43:44;5.53;;;1.73;;
71462;SDS011;59266;52.608;13.260;2022-07-01T11:46:11;5.63;;;1.58;;
71462;SDS011;59266;52.608;13.260;2022-07-01T11:48:38;3.85;;;1.60;;
71462;SDS011;59266;52.608;13.260;2022-07-01T11:51:12;4.20;;;1.50;;
71462;SDS011;59266;52.608;13.260;2022-07-01T11:53:41;7.13;;;1.70;;
71462;SDS011;59266;52.608;13.260;2022-07-01T11:56:10;3.53;;;1.40;;
71462;SDS011;59266;52.608;13.260;2022-07-01T11:58:41;5.35;;;1.60;;
71462;SDS011;59266;52.608;13.260;2022-07-01T12:01:08;4.07;;;1.70;;
71462;SDS011;59266;52.608;13.260;2022-07-01T12:03:34;8.07;;;2.42;;
71462;SDS011;59266;52.608;13.260;2022-07-01T12:06:02;5.22;;;2.50;;
71462;SDS011;59266;52.608;13.260;2022-07-01T12:08:30;7.28;;;2.40;;
71462;SDS011;59266;52.608;13.260;2022-07-01T12:10:57;6.20;;;3.10;;
71462;SDS011;59266;52.608;13.260;2022-07-01T12:13:27;6.57;;;3.25;;
71462;SDS011;59266;52.608;13.260;2022-07-01T12:15:53;7.00;;;3.30;;
71462;SDS011;59266;52.608;13.260;2022-07-01T12:18:20;7.38;;;3.80;;
71462;SDS011;59266;52.608;13.260;2022-07-01T12:20:47;8.80;;;4.03;;
71462;SDS011;59266;52.608;13.260;2022-07-01T12:23:15;8.05;;;3.75;;
71462;SDS011;59266;52.608;13.260;2022-07-01T12:25:48;9.57;;;3.60;;
71462;SDS011;59266;52.608;13.260;2022-07-01T12:28:28;6.88;;;3.78;;
71462;SDS011;59266;52.608;13.260;2022-07-01T12:31:04;7.55;;;3.65;;
71462;SDS011;59266;52.608;13.260;2022-07-01T12:33:33;6.88;;;4.13;;
71462;SDS011;59266;52.608;13.260;2022-07-01T12:36:02;7.75;;;3.75;;
71462;SDS011;59266;52.608;13.260;2022-07-01T12:38:29;7.03;;;3.58;;
71462;SDS011;59266;52.608;13.260;2022-07-01T12:40:56;7.20;;;3.40;;
71462;SDS011;59266;52.608;13.260;2022-07-01T12:43:23;6.93;;;3.45;;
71462;SDS011;59266;52.608;13.260;2022-07-01T12:45:51;7.70;;;3.55;;
71462;SDS011;59266;52.608;13.260;2022-07-01T12:48:18;7.07;;;3.72;;
71462;SDS011;59266;52.608;13.260;2022-07-01T12:50:44;6.13;;;3.17;;
71462;SDS011;59266;52.608;13.260;2022-07-01T12:53:17;6.65;;;3.38;;
71462;SDS011;59266;52.608;13.260;2022-07-01T12:55:45;7.60;;;3.28;;
71462;SDS011;59266;52.608;13.260;2022-07-01T12:58:23;7.20;;;3.42;;
71462;SDS011;59266;52.608;13.260;2022-07-01T13:00:52;6.15;;;3.35;;
71462;SDS011;59266;52.608;13.260;2022-07-01T13:03:22;6.57;;;3.80;;
71462;SDS011;59266;52.608;13.260;2022-07-01T13:05:50;7.00;;;3.70;;
71462;SDS011;59266;52.608;13.260;2022-07-01T13:08:18;7.13;;;3.70;;
71462;SDS011;59266;52.608;13.260;2022-07-01T13:10:46;6.18;;;3.28;;
71462;SDS011;59266;52.608;13.260;2022-07-01T13:13:14;7.15;;;3.47;;
71462;SDS011;59266;52.608;13.260;2022-07-01T13:15:43;6.65;;;3.50;;
71462;SDS011;59266;52.608;13.260;2022-07-01T13:18:10;7.15;;;3.20;;
71462;SDS011;59266;52.608;13.260;2022-07-01T13:20:40;6.80;;;3.55;;
71462;SDS011;59266;52.608;13.260;2022-07-01T13:23:08;6.47;;;3.42;;
71462;SDS011;59266;52.608;13.260;2022-07-01T13:25:34;5.88;;;3.03;;
71462;SDS011;59266;52.608;13.260;2022-07-01T13:28:01;7.65;;;3.38;;
71462;SDS011;59266;52.608;13.260;2022-07-01T13:30:28;6.65;;;3.40;;
71462;SDS011;59266;52.608;13.260;2022-07-01T13:32:54;6.53;;;3.10;;
71462;SDS011;59266;52.608;13.260;2022-07-01T13:35:21;5.95;;;3.20;;
71462;SDS011;59266;52.608;13.260;2022-07-01T13:37:49;7.65;;;3.03;;
71462;SDS011;59266;52.608;13.260;2022-07-01T13:40:16;8.35;;;3.22;;
71462;SDS011;59266;52.608;13.260;2022-07-01T13:42:43;6.35;;;3.10;;
71462;SDS011;59266;52.608;13.260;2022-07-01T13:45:09;4.93;;;2.85;;
71462;SDS011;59266;52.608;13.260;2022-07-01T13:47:36;5.50;;;2.83;;
71462;SDS011;59266;52.608;13.260;2022-07-01T13:50:03;6.10;;;2.88;;
71462;SDS011;59266;52.608;13.260;2022-07-01T13:52:30;7.10;;;2.67;;
71462;SDS011;59266;52.608;13.260;2022-07-01T13:54:57;6.68;;;3.10;;
71462;SDS011;59266;52.608;13.260;2022-07-01T13:57:25;5.70;;;2.95;;
71462;SDS011;59266;52.608;13.260;2022-07-01T13:59:52;6.18;;;2.90;;
71462;SDS011;59266;52.608;13.260;2022-07-01T14:02:19;5.78;;;3.08;;
71462;SDS011;59266;52.608;13.260;2022-07-01T14:04:46;5.80;;;3.13;;
71462;SDS011;59266;52.608;13.260;2022-07-01T14:07:13;5.28;;;2.85;;
71462;SDS011;59266;52.608;13.260;2022-07-01T14:09:40;5.72;;;3.00;;
71462;SDS011;59266;52.608;13.260;2022-07-01T14:12:08;5.10;;;2.83;;
71462;SDS011;59266;52.608;13.260;2022-07-01T14:14:39;7.07;;;2.80;;
71462;SDS011;59266;52.608;13.260;2022-07-01T14:17:06;6.15;;;2.97;;
71462;SDS011;59266;52.608;13.260;2022-07-01T14:19:33;6.05;;;3.00;;
71462;SDS011;59266;52.608;13.260;2022-07-01T14:22:00;6.07;;;3.15;;
71462;SDS011;59266;52.608;13.260;2022-07-01T14:24:26;6.85;;;3.40;;
71462;SDS011;59266;52.608;13.260;2022-07-01T14:26:53;6.05;;;3.10;;
71462;SDS011;59266;52.608;13.260;2022-07-01T14:29:20;7.38;;;3.17;;
71462;SDS011;59266;52.608;13.260;2022-07-01T14:31:46;6.72;;;3.00;;
71462;SDS011;59266;52.608;13.260;2022-07-01T14:34:13;5.10;;;2.53;;
71462;SDS011;59266;52.608;13.260;2022-07-01T14:36:39;5.55;;;3.10;;
71462;SDS011;59266;52.608;13.260;2022-07-01T14:39:06;5.68;;;2.90;;